Time;durP1;ratioP1;P1;durP2;ratioP2;P2;SDS_P1;SDS_P2;PMS_P1;PMS_P2;Temp;Humidity;BMP_temperature;BMP_pressure;BME280_temperature;BME280_humidity;BME280_pressure;Samples;Min_cycle;Max_cycle;Signal;HPM_P1;HPM_P2
2022/11/09 00:00:29;;;;;;;2.13;1.77;;;;;;;14.07;68.57;100585.66;6086746;29;20228;-82
2022/11/09 00:03:56;;;;;;;0.90;0.90;;;;;;;14.03;68.51;100583.44;6060162;29;20236;-81
2022/11/09 00:07:20;;;;;;;3.37;1.60;;;;;;;13.99;69.07;100584.78;6087963;29;20557;-79
2022/11/09 00:10:41;;;;;;;4.03;2.40;;;;;;;13.97;69.31;100584.97;6077692;29;20225;-84
2022/11/09 00:14:04;;;;;;;1.27;1.03;;;;;;;13.91;69.29;100584.75;6075562;29;20296;-81
2022/11/09 00:17:27;;;;;;;0.97;0.87;;;;;;;13.92;69.56;100586.44;6087124;29;20240;-82
2022/11/09 00:20:48;;;;;;;1.00;1.00;;;;;;;13.87;69.66;100584.22;6083475;29;20606;-80
2022/11/09 00:24:10;;;;;;;2.27;1.47;;;;;;;13.83;69.66;100576.63;6085165;29;20237;-76
2022/11/09 00:27:31;;;;;;;2.07;1.63;;;;;;;13.82;69.91;100578.47;6091528;29;20240;-76
2022/11/09 00:30:58;;;;;;;1.60;1.10;;;;;;;13.79;70.13;100564.41;6080735;29;20233;-78
2022/11/09 00:34:21;;;;;;;3.47;1.20;;;;;;;13.81;70.05;100563.22;6084159;29;20248;-79
2022/11/09 00:37:41;;;;;;;2.67;1.03;;;;;;;13.75;70.13;100557.63;6084891;29;20252;-77
2022/11/09 00:41:05;;;;;;;1.10;1.00;;;;;;;13.69;70.47;100548.28;6080160;29;20619;-77
2022/11/09 00:44:25;;;;;;;2.20;1.67;;;;;;;13.61;70.83;100559.94;6081011;29;20240;-77
2022/11/09 00:47:46;;;;;;;1.40;0.90;;;;;;;13.55;70.95;100557.88;6073684;29;20633;-77
2022/11/09 00:51:10;;;;;;;2.50;1.23;;;;;;;13.51;71.33;100559.22;6060501;29;20233;-77
2022/11/09 00:54:30;;;;;;;2.07;1.43;;;;;;;13.51;71.36;100558.38;6054757;29;20614;-77
2022/11/09 00:57:52;;;;;;;3.33;1.30;;;;;;;13.51;71.30;100553.81;6088850;29;20754;-77
2022/11/09 01:01:17;;;;;;;1.23;1.13;;;;;;;13.51;71.57;100548.38;6070694;29;20233;-76
2022/11/09 01:04:38;;;;;;;2.50;1.00;;;;;;;13.55;71.50;100551.63;6074704;29;20598;-76
2022/11/09 01:08:02;;;;;;;1.53;1.00;;;;;;;13.57;71.44;100542.31;6093601;29;20231;-76
2022/11/09 01:11:23;;;;;;;2.27;1.33;;;;;;;13.61;71.26;100548.25;6084239;29;20239;-76
2022/11/09 01:14:47;;;;;;;1.13;0.90;;;;;;;13.66;70.96;100548.63;6067078;29;20505;-77
2022/11/09 01:18:07;;;;;;;2.80;2.37;;;;;;;13.63;71.09;100541.66;6084799;29;20319;-78
2022/11/09 01:21:28;;;;;;;2.63;1.57;;;;;;;13.56;71.46;100537.03;6071315;29;20554;-76
2022/11/09 01:24:51;;;;;;;2.27;1.17;;;;;;;13.58;71.78;100535.88;6073519;29;20236;-77
2022/11/09 01:28:11;;;;;;;1.20;0.93;;;;;;;13.54;71.73;100533.66;6075249;29;20232;-77
2022/11/09 01:31:33;;;;;;;1.50;1.40;;;;;;;13.50;71.87;100524.16;6086065;29;20224;-77
2022/11/09 01:34:56;;;;;;;1.03;1.03;;;;;;;13.44;72.22;100533.78;6068684;29;20252;-78
2022/11/09 01:38:17;;;;;;;2.30;1.10;;;;;;;13.45;72.06;100518.41;6073584;29;20220;-77
2022/11/09 01:41:39;;;;;;;7.17;3.47;;;;;;;13.41;72.06;100525.97;6083495;29;21755;-76
2022/11/09 01:45:24;;;;;;;1.30;1.00;;;;;;;13.40;72.77;100531.56;6064783;29;20705;-77
2022/11/09 01:48:49;;;;;;;2.40;1.30;;;;;;;13.39;72.69;100532.59;6067408;29;20525;-79
2022/11/09 01:52:17;;;;;;;2.50;1.50;;;;;;;13.46;72.33;100533.63;6076492;29;20235;-77
2022/11/09 01:55:39;;;;;;;2.90;1.13;;;;;;;13.48;72.56;100523.47;6074426;29;20240;-77
2022/11/09 01:59:05;;;;;;;1.87;1.70;;;;;;;13.45;72.64;100513.84;6077421;29;20237;-77
2022/11/09 02:02:28;;;;;;;2.00;1.80;;;;;;;13.47;72.35;100516.38;6083941;29;20233;-77
2022/11/09 02:05:49;;;;;;;1.57;1.20;;;;;;;13.49;72.55;100517.06;6065932;29;20670;-77
2022/11/09 02:09:19;;;;;;;1.43;1.30;;;;;;;13.47;72.46;100519.94;6070358;29;20237;-77
2022/11/09 02:12:40;;;;;;;2.70;1.30;;;;;;;13.48;72.93;100510.78;6080399;29;20240;-77
2022/11/09 02:16:03;;;;;;;1.20;0.90;;;;;;;13.49;72.80;100512.50;6056663;29;20232;-77
2022/11/09 02:19:24;;;;;;;1.83;1.03;;;;;;;13.48;72.67;100512.63;6081471;29;20661;-77
2022/11/09 02:22:46;;;;;;;1.33;0.90;;;;;;;13.51;72.69;100513.19;6086812;29;20611;-78
2022/11/09 02:26:13;;;;;;;4.13;1.03;;;;;;;13.53;72.78;100511.16;6073544;29;20233;-77
2022/11/09 02:29:37;;;;;;;1.93;1.70;;;;;;;13.63;72.32;100508.31;6071039;29;20237;-77
2022/11/09 02:32:58;;;;;;;2.67;1.13;;;;;;;13.67;72.30;100508.81;6075381;29;20609;-76
2022/11/09 02:36:20;;;;;;;1.83;1.33;;;;;;;13.69;72.30;100512.19;6077554;29;20240;-77
2022/11/09 02:39:42;;;;;;;1.20;1.20;;;;;;;13.73;72.19;100503.56;6072234;29;20236;-77
2022/11/09 02:43:05;;;;;;;0.70;0.70;;;;;;;13.72;72.11;100518.16;6064348;29;20740;-78
2022/11/09 02:46:31;;;;;;;1.53;1.10;;;;;;;13.74;72.08;100512.56;6067333;29;20319;-78
2022/11/09 02:49:52;;;;;;;1.63;1.20;;;;;;;13.72;72.42;100512.75;6062988;29;20548;-77
2022/11/09 02:53:14;;;;;;;0.93;0.80;;;;;;;13.68;72.22;100514.09;6085092;29;20547;-78
2022/11/09 02:56:40;;;;;;;2.23;1.50;;;;;;;13.63;72.65;100514.56;6076619;29;20232;-77
2022/11/09 03:00:04;;;;;;;1.20;1.10;;;;;;;13.60;73.15;100516.78;6074993;29;20241;-77
2022/11/09 03:03:25;;;;;;;1.67;1.57;;;;;;;13.59;73.07;100513.22;6066468;29;20233;-78
2022/11/09 03:06:46;;;;;;;1.53;1.33;;;;;;;13.59;72.97;100517.78;6077242;29;20244;-78
2022/11/09 03:10:10;;;;;;;1.30;1.07;;;;;;;13.63;72.93;100521.84;6063634;29;20233;-78
2022/11/09 03:13:33;;;;;;;2.10;1.50;;;;;;;13.56;73.18;100527.06;6074949;29;20240;-77
2022/11/09 03:16:55;;;;;;;4.73;1.63;;;;;;;13.53;73.53;100523.84;6082799;29;20694;-77
2022/11/09 03:20:17;;;;;;;1.70;1.40;;;;;;;13.53;73.55;100521.13;6060314;29;20236;-78
2022/11/09 03:23:38;;;;;;;2.47;2.27;;;;;;;13.49;73.64;100528.75;6075816;29;20682;-78
2022/11/09 03:26:59;;;;;;;2.57;1.23;;;;;;;13.47;73.56;100516.38;6074724;29;20327;-77
2022/11/09 03:30:22;;;;;;;1.73;1.63;;;;;;;13.44;73.84;100514.84;6052565;29;20236;-76
2022/11/09 03:33:43;;;;;;;1.80;1.20;;;;;;;13.43;73.70;100512.31;6077694;29;20240;-76
2022/11/09 03:37:04;;;;;;;1.23;1.00;;;;;;;13.40;74.15;100518.88;6071793;29;20240;-75
2022/11/09 03:40:26;;;;;;;2.03;1.67;;;;;;;13.39;74.40;100530.72;6064025;29;20228;-76
2022/11/09 03:43:47;;;;;;;1.23;1.13;;;;;;;13.39;74.51;100528.00;6072131;29;20327;-76
2022/11/09 03:47:09;;;;;;;2.43;1.00;;;;;;;13.40;74.32;100521.59;6085932;29;20326;-76
2022/11/09 03:50:31;;;;;;;1.47;1.37;;;;;;;13.46;74.31;100520.09;6075096;29;20268;-76
2022/11/09 03:53:52;;;;;;;3.10;1.17;;;;;;;13.46;74.10;100517.38;6071683;29;20268;-75
2022/11/09 03:57:12;;;;;;;1.97;1.13;;;;;;;13.45;74.24;100511.13;6084014;29;20259;-76
2022/11/09 04:00:34;;;;;;;2.20;1.17;;;;;;;13.51;74.14;100502.34;6074274;29;20236;-76
2022/11/09 04:03:56;;;;;;;2.93;0.97;;;;;;;13.52;74.25;100512.16;6076538;29;20538;-76
2022/11/09 04:07:17;;;;;;;1.93;1.20;;;;;;;13.60;73.98;100530.31;6089826;29;20275;-78
2022/11/09 04:10:38;;;;;;;2.57;1.30;;;;;;;13.62;74.02;100522.88;6074827;29;20228;-81
2022/11/09 04:13:59;;;;;;;2.33;1.23;;;;;;;13.59;74.34;100515.06;6072917;29;20228;-79
2022/11/09 04:17:21;;;;;;;1.77;1.67;;;;;;;13.60;73.94;100503.22;6085534;29;20240;-80
2022/11/09 04:20:43;;;;;;;3.00;1.20;;;;;;;13.55;74.37;100506.44;6075964;29;20225;-78
2022/11/09 04:24:05;;;;;;;1.47;1.33;;;;;;;13.53;74.79;100504.88;6074092;29;20292;-80
2022/11/09 04:27:26;;;;;;;4.27;2.03;;;;;;;13.52;74.62;100511.31;6089847;29;20639;-80
2022/11/09 04:30:46;;;;;;;1.30;1.20;;;;;;;13.48;74.53;100507.22;6065494;29;20307;-79
2022/11/09 04:34:08;;;;;;;2.50;1.87;;;;;;;13.46;75.00;100512.81;6079097;29;20236;-80
2022/11/09 04:37:30;;;;;;;2.50;1.10;;;;;;;13.52;74.87;100498.63;6067780;29;20233;-78
2022/11/09 04:40:51;;;;;;;1.43;1.20;;;;;;;13.48;74.94;100502.66;6074783;29;20232;-80
2022/11/09 04:44:13;;;;;;;0.97;0.90;;;;;;;13.50;75.00;100500.63;6071759;29;20229;-80
2022/11/09 04:47:33;;;;;;;0.87;0.87;;;;;;;13.51;74.95;100496.94;6057019;29;20229;-77
2022/11/09 04:51:00;;;;;;;1.23;1.03;;;;;;;13.55;74.85;100505.56;6068798;29;20248;-78
2022/11/09 04:54:22;;;;;;;1.10;1.00;;;;;;;13.57;75.01;100508.97;6073263;29;20271;-77
2022/11/09 04:57:43;;;;;;;1.17;0.90;;;;;;;13.61;75.01;100515.75;6083634;29;20236;-77
2022/11/09 05:01:05;;;;;;;1.37;1.27;;;;;;;13.61;74.60;100502.19;6068648;29;20256;-78
2022/11/09 05:04:26;;;;;;;2.83;1.00;;;;;;;13.56;74.95;100510.81;6070939;29;20570;-78
2022/11/09 05:07:47;;;;;;;2.70;2.53;;;;;;;13.60;74.90;100514.06;6085665;29;20224;-77
2022/11/09 05:11:09;;;;;;;3.57;1.20;;;;;;;13.53;75.15;100516.56;6058946;29;20232;-77
2022/11/09 05:14:30;;;;;;;1.33;1.23;;;;;;;13.50;75.04;100516.88;6070985;29;20237;-76
2022/11/09 05:17:51;;;;;;;1.70;1.57;;;;;;;13.52;74.98;100519.41;6084116;29;20244;-77
2022/11/09 05:21:12;;;;;;;3.10;1.37;;;;;;;13.61;74.85;100529.28;6070769;29;20244;-78
2022/11/09 05:24:33;;;;;;;0.73;0.73;;;;;;;13.62;74.85;100528.28;6071313;29;20258;-77
2022/11/09 05:27:55;;;;;;;2.10;1.40;;;;;;;13.69;74.44;100525.75;6088117;29;20555;-77
2022/11/09 05:31:16;;;;;;;1.03;0.87;;;;;;;13.69;74.48;100526.59;6076550;29;20232;-77
2022/11/09 05:34:37;;;;;;;0.93;0.93;;;;;;;13.73;74.31;100525.25;6080143;29;21423;-78
2022/11/09 05:37:58;;;;;;;1.20;1.10;;;;;;;13.69;74.52;100517.63;6091096;29;20245;-78
2022/11/09 05:41:20;;;;;;;3.40;1.67;;;;;;;13.74;74.05;100517.97;6076961;29;20315;-78
2022/11/09 05:44:42;;;;;;;1.10;0.80;;;;;;;13.74;74.19;100507.16;6077530;29;20229;-77
2022/11/09 05:48:03;;;;;;;1.10;1.10;;;;;;;13.75;74.09;100515.09;6087107;29;20241;-76
2022/11/09 05:51:25;;;;;;;2.03;1.33;;;;;;;13.73;74.20;100511.72;6067107;29;20251;-77
2022/11/09 05:54:45;;;;;;;1.73;0.97;;;;;;;13.69;74.65;100504.94;6075608;29;20599;-76
2022/11/09 05:58:07;;;;;;;3.03;1.20;;;;;;;13.70;74.42;100506.63;6077790;29;20232;-77
2022/11/09 06:01:29;;;;;;;2.43;2.20;;;;;;;13.71;74.29;100505.59;6065045;29;22232;-77
2022/11/09 06:04:50;;;;;;;1.30;1.20;;;;;;;13.66;74.61;100499.84;6072638;29;20233;-76
2022/11/09 06:08:13;;;;;;;3.60;1.43;;;;;;;13.69;74.71;100512.19;6081643;29;20318;-78
2022/11/09 06:11:34;;;;;;;2.37;1.00;;;;;;;13.66;74.58;100507.13;6082824;29;20804;-77
2022/11/09 06:14:55;;;;;;;2.80;1.47;;;;;;;13.67;74.66;100514.22;6061507;29;20240;-74
2022/11/09 06:18:17;;;;;;;0.87;0.87;;;;;;;13.68;74.56;100511.38;6082219;29;20236;-72
2022/11/09 06:21:38;;;;;;;1.50;0.90;;;;;;;13.70;74.35;100505.78;6086586;29;20225;-74
2022/11/09 06:24:59;;;;;;;1.03;1.03;;;;;;;13.70;74.38;100525.59;6076129;29;20611;-73
2022/11/09 06:28:21;;;;;;;2.97;2.07;;;;;;;13.71;74.53;100539.97;6080155;29;20233;-74
2022/11/09 06:31:42;;;;;;;2.53;0.80;;;;;;;13.70;74.41;100539.16;6094353;29;20264;-75
2022/11/09 06:35:06;;;;;;;1.63;1.17;;;;;;;13.68;74.61;100543.03;6080862;29;20662;-74
2022/11/09 06:38:27;;;;;;;3.03;1.87;;;;;;;13.66;74.61;100543.19;6079597;29;20537;-73
2022/11/09 06:41:47;;;;;;;1.17;1.17;;;;;;;13.66;74.56;100550.47;6076282;29;20245;-74
2022/11/09 06:45:09;;;;;;;1.20;1.10;;;;;;;13.67;74.62;100554.84;6066088;29;20633;-75
2022/11/09 06:48:30;;;;;;;1.60;0.90;;;;;;;13.71;74.55;100577.91;6059982;29;20237;-74
2022/11/09 06:51:53;;;;;;;5.77;1.70;;;;;;;13.69;74.62;100572.66;6075892;29;20240;-74
2022/11/09 06:55:14;;;;;;;1.10;0.90;;;;;;;13.72;74.32;100566.91;6060917;29;20362;-75
2022/11/09 06:58:36;;;;;;;4.40;1.93;;;;;;;13.73;74.33;100565.03;6056559;29;20228;-74
2022/11/09 07:01:57;;;;;;;1.83;1.73;;;;;;;13.66;74.52;100577.56;6073376;29;20237;-75
2022/11/09 07:05:18;;;;;;;1.40;0.90;;;;;;;13.68;74.41;100581.81;6062790;29;20236;-75
2022/11/09 07:08:41;;;;;;;2.80;1.70;;;;;;;13.66;74.60;100586.53;6066512;29;20240;-75
2022/11/09 07:12:02;;;;;;;2.23;1.27;;;;;;;13.59;74.78;100588.19;6083986;29;20241;-75
2022/11/09 07:15:24;;;;;;;2.93;2.47;;;;;;;13.59;74.99;100583.63;6074014;29;20240;-74
2022/11/09 07:18:45;;;;;;;3.30;2.03;;;;;;;13.59;75.35;100578.22;6077207;29;20442;-75
2022/11/09 07:22:06;;;;;;;3.77;1.40;;;;;;;13.61;75.07;100578.91;6085613;29;20237;-75
2022/11/09 07:25:29;;;;;;;3.83;1.97;;;;;;;13.64;75.32;100596.69;6076852;29;20225;-75
2022/11/09 07:28:49;;;;;;;2.20;2.00;;;;;;;13.63;75.15;100585.00;6072339;29;20656;-74
2022/11/09 07:32:10;;;;;;;3.70;2.23;;;;;;;13.64;75.17;100600.22;6081964;29;20267;-74
2022/11/09 07:35:31;;;;;;;3.50;1.40;;;;;;;13.74;74.80;100601.97;6071951;29;20315;-75
2022/11/09 07:38:52;;;;;;;8.10;2.40;;;;;;;13.73;74.99;100597.53;6071067;29;20271;-73
2022/11/09 07:42:14;;;;;;;2.33;0.97;;;;;;;13.70;74.96;100598.75;6067554;29;20916;-74
2022/11/09 07:45:35;;;;;;;2.20;1.53;;;;;;;13.69;75.12;100605.16;6070067;29;20240;-73
2022/11/09 07:48:56;;;;;;;2.37;1.30;;;;;;;13.67;75.20;100604.47;6070532;29;20225;-74
2022/11/09 07:52:17;;;;;;;4.30;2.20;;;;;;;13.73;75.26;100606.53;6076409;29;20614;-73
2022/11/09 07:55:38;;;;;;;3.27;2.60;;;;;;;13.73;75.16;100621.94;6071682;29;20237;-73
2022/11/09 07:59:00;;;;;;;2.03;1.53;;;;;;;13.76;75.00;100627.91;6073036;29;20415;-73
2022/11/09 08:02:21;;;;;;;3.43;2.00;;;;;;;13.77;75.01;100618.75;6083958;29;20695;-74
2022/11/09 08:05:42;;;;;;;2.37;1.53;;;;;;;13.83;74.80;100625.38;6075239;29;20256;-73
2022/11/09 08:09:03;;;;;;;2.37;1.63;;;;;;;13.83;74.68;100625.38;6072178;29;20240;-73
2022/11/09 08:12:23;;;;;;;1.73;1.50;;;;;;;13.87;74.66;100627.59;6084333;29;20666;-74
2022/11/09 08:15:46;;;;;;;1.63;1.20;;;;;;;13.98;74.07;100626.44;6057735;29;20232;-74
2022/11/09 08:19:08;;;;;;;1.67;1.57;;;;;;;14.04;74.09;100623.09;6074670;29;20233;-73
2022/11/09 08:22:29;;;;;;;1.70;1.10;;;;;;;14.10;73.70;100619.72;6086710;29;20244;-73
2022/11/09 08:25:50;;;;;;;0.93;0.93;;;;;;;14.20;73.02;100615.00;6073758;29;20845;-73
2022/11/09 08:29:14;;;;;;;1.60;0.80;;;;;;;14.31;72.84;100618.25;6069556;29;20224;-73
2022/11/09 08:32:36;;;;;;;1.70;1.33;;;;;;;14.36;72.29;100628.63;6091488;29;20232;-72
2022/11/09 08:35:57;;;;;;;6.00;1.90;;;;;;;14.41;71.88;100612.72;6077503;29;20263;-74
2022/11/09 08:39:21;;;;;;;2.07;1.00;;;;;;;14.48;71.39;100615.59;6073728;29;20319;-73
2022/11/09 08:42:42;;;;;;;5.13;2.03;;;;;;;14.53;71.24;100619.50;6081038;29;20236;-74
2022/11/09 08:46:03;;;;;;;1.50;0.97;;;;;;;17.88;60.42;100618.00;6072042;29;20252;-74
2022/11/09 08:49:25;;;;;;;2.20;1.20;;;;;;;18.01;58.62;100620.06;6077631;29;20522;-74
2022/11/09 08:52:46;;;;;;;2.75;1.10;;;;;;;17.19;61.49;100618.44;6085236;29;20327;-74
2022/11/09 08:56:08;;;;;;;0.93;0.80;;;;;;;18.60;56.24;100610.72;6077123;29;20240;-75
2022/11/09 08:59:29;;;;;;;8.48;1.23;;;;;;;17.90;58.17;100639.66;6078535;29;20228;-76
2022/11/09 09:02:50;;;;;;;1.13;0.90;;;;;;;16.47;63.02;100636.16;6084112;29;20626;-74
2022/11/09 09:06:12;;;;;;;3.38;1.00;;;;;;;18.02;58.00;100638.16;6082233;29;20236;-76
2022/11/09 09:09:36;;;;;;;1.52;1.05;;;;;;;19.17;54.34;100629.72;6085006;29;20259;-74
2022/11/09 09:12:58;;;;;;;2.28;0.65;;;;;;;16.55;61.93;100637.00;6094452;29;20231;-76
2022/11/09 09:16:18;;;;;;;1.98;0.80;;;;;;;16.19;63.11;100663.00;6069068;29;20232;-74
2022/11/09 09:19:39;;;;;;;2.20;0.70;;;;;;;16.27;63.29;100637.66;6084145;29;20228;-75
2022/11/09 09:23:01;;;;;;;4.28;1.10;;;;;;;17.99;59.16;100636.63;6092236;29;20342;-75
2022/11/09 09:26:22;;;;;;;3.65;1.20;;;;;;;16.48;62.26;100640.59;6083107;29;20232;-79
2022/11/09 09:29:43;;;;;;;3.30;1.50;;;;;;;18.90;56.16;100638.78;6081490;29;20240;-77
2022/11/09 09:33:04;;;;;;;2.60;1.10;;;;;;;16.27;62.67;100637.66;6066078;29;20264;-74
2022/11/09 09:36:24;;;;;;;1.98;1.10;;;;;;;16.98;61.31;100648.25;6080610;29;20288;-74
2022/11/09 09:39:47;;;;;;;1.15;1.00;;;;;;;17.93;56.99;100639.28;6084208;29;20243;-75
2022/11/09 09:43:15;;;;;;;3.80;1.20;;;;;;;17.09;59.19;100662.28;6094570;29;20232;-78
2022/11/09 09:46:42;;;;;;;9.60;3.13;;;;;;;16.10;62.75;100646.91;6094060;29;20247;-75
2022/11/09 09:50:06;;;;;;;1.95;1.67;;;;;;;15.65;64.54;100666.63;6078663;29;20320;-74
2022/11/09 09:53:34;;;;;;;3.53;1.45;;;;;;;15.53;64.76;100657.13;6073139;29;20271;-74
2022/11/09 09:56:59;;;;;;;11.97;1.40;;;;;;;15.42;65.54;100665.59;6089601;29;20311;-71
2022/11/09 10:00:23;;;;;;;3.28;2.40;;;;;;;18.78;55.56;100652.09;6079847;29;20232;-70
2022/11/09 10:03:44;;;;;;;3.75;1.02;;;;;;;17.93;57.46;100659.22;6081669;29;20237;-70
2022/11/09 10:07:14;;;;;;;4.70;1.58;;;;;;;16.74;60.72;100660.16;6086699;29;20232;-71
2022/11/09 10:10:44;;;;;;;2.22;1.88;;;;;;;18.01;56.99;100658.25;6080462;29;20651;-69
2022/11/09 10:14:33;;;;;;;2.58;0.98;;;;;;;17.94;57.34;100657.34;6084379;29;20228;-69
2022/11/09 10:18:07;;;;;;;3.15;1.67;;;;;;;18.61;55.46;100667.03;6085045;29;20253;-73
2022/11/09 10:21:39;;;;;;;2.95;1.00;;;;;;;18.80;54.54;100660.94;6064234;29;20570;-74
2022/11/09 10:25:06;;;;;;;3.17;1.38;;;;;;;19.75;51.35;100661.34;6080914;29;20236;-76
2022/11/09 10:28:29;;;;;;;2.67;1.10;;;;;;;18.47;54.50;100665.19;6077958;29;20333;-75
2022/11/09 10:31:53;;;;;;;1.80;1.08;;;;;;;19.29;52.49;100662.84;6089503;29;20228;-74
2022/11/09 10:35:19;;;;;;;3.92;1.05;;;;;;;18.59;54.81;100658.19;6078548;29;20289;-75
2022/11/09 10:38:44;;;;;;;1.58;1.17;;;;;;;20.62;49.52;100665.16;6066291;29;20258;-75
2022/11/09 10:42:24;;;;;;;3.22;1.70;;;;;;;19.65;50.77;100652.66;6086431;29;20384;-74
2022/11/09 10:46:05;;;;;;;3.70;1.48;;;;;;;19.84;50.76;100650.03;6079946;29;20773;-75
2022/11/09 10:49:45;;;;;;;1.77;1.33;;;;;;;18.48;53.46;100663.31;6083063;29;20229;-82
2022/11/09 10:53:26;;;;;;;0.60;0.60;;;;;;;18.85;52.68;100674.00;6091921;29;20236;-75
2022/11/09 10:57:15;;;;;;;3.33;1.80;;;;;;;19.63;50.94;100635.59;6092344;29;20236;-75
2022/11/09 11:01:02;;;;;;;2.28;1.38;;;;;;;18.48;53.23;100666.91;6077247;29;20267;-74
2022/11/09 11:04:41;;;;;;;2.70;1.27;;;;;;;19.22;51.38;100651.88;6079170;29;20237;-74
2022/11/09 11:08:30;;;;;;;2.92;1.83;;;;;;;20.20;49.73;100641.63;6087478;29;20236;-75
2022/11/09 11:12:15;;;;;;;3.67;0.95;;;;;;;20.01;49.18;100653.28;6086888;29;20244;-75
2022/11/09 11:15:58;;;;;;;3.25;1.10;;;;;;;22.30;44.18;100648.00;6069917;29;20232;-75
2022/11/09 11:19:40;;;;;;;4.28;1.88;;;;;;;21.06;46.23;100649.03;6077459;29;20232;-76
2022/11/09 11:23:21;;;;;;;2.80;1.83;;;;;;;20.63;47.06;100647.69;6081048;29;20244;-76
2022/11/09 11:27:08;;;;;;;1.88;1.45;;;;;;;21.92;44.99;100642.47;6088474;29;20549;-81
2022/11/09 11:30:47;;;;;;;3.15;1.48;;;;;;;20.52;47.65;100646.38;6075776;29;20236;-76
2022/11/09 11:34:26;;;;;;;3.17;1.23;;;;;;;18.95;52.71;100652.66;6075236;29;20244;-78
2022/11/09 11:38:16;;;;;;;1.13;0.80;;;;;;;19.00;53.04;100647.47;6061554;29;20694;-79
2022/11/09 11:42:19;;;;;;;2.88;1.10;;;;;;;18.14;53.97;100650.25;6086468;29;20244;-78
2022/11/09 11:46:14;;;;;;;3.00;1.20;;;;;;;18.53;51.65;100666.28;6082269;29;20240;-79
2022/11/09 11:50:12;;;;;;;4.30;1.50;;;;;;;16.85;57.14;100687.00;6077907;29;20224;-79
2022/11/09 11:54:06;;;;;;;1.55;1.02;;;;;;;16.52;57.67;100669.19;6081066;29;20770;-79
2022/11/09 11:57:58;;;;;;;3.35;1.48;;;;;;;16.49;57.07;100666.75;6086047;29;20606;-76
2022/11/09 12:01:58;;;;;;;0.80;0.80;;;;;;;16.46;57.14;100667.97;6085653;29;20244;-75
2022/11/09 12:05:54;;;;;;;4.60;1.27;;;;;;;18.65;51.97;100662.88;6048504;29;20304;-77
2022/11/09 12:09:53;;;;;;;6.30;1.73;;;;;;;17.23;55.31;100649.72;6064497;29;20243;-75
2022/11/09 12:13:49;;;;;;;1.58;1.15;;;;;;;16.45;58.36;100663.56;6069599;29;20248;-75
2022/11/09 12:17:40;;;;;;;4.45;1.35;;;;;;;17.76;54.52;100665.03;6081273;29;21188;-75
2022/11/09 12:21:26;;;;;;;3.13;0.93;;;;;;;17.45;55.82;100654.28;6073001;29;20963;-75
2022/11/09 12:25:14;;;;;;;9.18;2.35;;;;;;;17.68;55.93;100641.44;6073655;29;20252;-76
2022/11/09 12:29:07;;;;;;;2.92;1.00;;;;;;;17.09;56.91;100659.53;6079331;29;20614;-74
2022/11/09 12:32:53;;;;;;;4.25;1.20;;;;;;;16.93;57.28;100656.97;6081565;29;20231;-75
2022/11/09 12:36:38;;;;;;;1.58;1.42;;;;;;;17.32;56.64;100645.88;6086624;29;20248;-75
2022/11/09 12:40:23;;;;;;;2.95;1.73;;;;;;;16.73;57.78;100644.84;6077686;29;20260;-77
2022/11/09 12:44:10;;;;;;;3.17;1.20;;;;;;;17.15;55.93;100642.47;6073824;29;20236;-75
2022/11/09 12:47:53;;;;;;;3.60;1.83;;;;;;;16.39;57.25;100669.72;6085320;29;20224;-74
2022/11/09 12:51:33;;;;;;;2.70;1.43;;;;;;;16.37;56.91;100643.72;6078329;29;20241;-72
2022/11/09 12:55:13;;;;;;;2.23;0.97;;;;;;;16.83;55.57;100648.19;6069945;29;20240;-72
2022/11/09 12:59:14;;;;;;;3.10;1.77;;;;;;;16.68;56.46;100642.69;6079876;29;20248;-74
2022/11/09 13:02:58;;;;;;;4.33;1.50;;;;;;;16.12;57.57;100672.94;6090724;29;20244;-74
2022/11/09 13:06:37;;;;;;;1.90;1.20;;;;;;;16.46;57.03;100650.78;6091295;29;20511;-73
2022/11/09 13:10:33;;;;;;;2.27;1.57;;;;;;;16.59;56.84;100656.53;6076343;29;20233;-74
2022/11/09 13:14:36;;;;;;;5.17;2.27;;;;;;;16.49;57.12;100654.03;6074231;29;20237;-73
2022/11/09 13:18:25;;;;;;;4.83;2.23;;;;;;;16.36;57.33;100647.44;6087515;29;20243;-74
2022/11/09 13:22:48;;;;;;;4.60;1.40;;;;;;;16.62;56.26;100659.75;6086154;29;20241;-72
2022/11/09 13:26:57;;;;;;;1.70;1.60;;;;;;;16.38;57.27;100657.13;6063816;29;20585;-72
2022/11/09 13:30:40;;;;;;;1.60;1.00;;;;;;;16.03;58.28;100660.38;6078184;29;20248;-73
2022/11/09 13:34:49;;;;;;;4.93;1.42;;;;;;;15.92;58.72;100683.34;6076510;29;20255;-73
2022/11/09 13:38:30;;;;;;;1.77;1.37;;;;;;;16.04;58.63;100681.13;6059221;29;20260;-72
2022/11/09 13:42:25;;;;;;;3.47;1.00;;;;;;;16.15;59.18;100669.84;6080882;29;20240;-74
2022/11/09 13:46:23;;;;;;;1.97;1.03;;;;;;;15.97;60.00;100667.38;6076662;29;20501;-73
2022/11/09 13:50:16;;;;;;;2.90;1.20;;;;;;;16.05;59.65;100676.50;6077392;29;20223;-73
2022/11/09 13:53:57;;;;;;;2.07;1.00;;;;;;;15.94;59.79;100694.91;6077267;29;20236;-73
2022/11/09 13:57:38;;;;;;;3.20;1.40;;;;;;;16.07;60.09;100686.19;6091679;29;20259;-73
2022/11/09 14:01:28;;;;;;;2.77;1.33;;;;;;;15.99;59.46;100694.38;6075166;29;20232;-73
2022/11/09 14:05:25;;;;;;;1.47;0.87;;;;;;;15.99;59.26;100695.25;6083621;29;20248;-73
2022/11/09 14:09:05;;;;;;;3.03;2.10;;;;;;;15.99;59.51;100689.81;6078877;29;20237;-72
2022/11/09 14:12:57;;;;;;;1.93;1.10;;;;;;;15.73;60.46;100693.75;6084675;29;20236;-72
2022/11/09 14:16:47;;;;;;;2.20;1.70;;;;;;;15.60;60.48;100694.34;6095060;29;20229;-72
2022/11/09 14:20:40;;;;;;;1.57;1.20;;;;;;;15.56;60.74;100686.69;6069146;29;21598;-72
2022/11/09 14:24:21;;;;;;;4.87;1.70;;;;;;;15.70;60.09;100691.41;6079065;29;20240;-72
2022/11/09 14:28:00;;;;;;;1.80;0.93;;;;;;;15.73;60.69;100693.75;6091558;29;20232;-73
2022/11/09 14:31:44;;;;;;;3.70;1.33;;;;;;;15.50;61.16;100699.09;6087948;29;20233;-73
2022/11/09 14:35:27;;;;;;;2.20;1.10;;;;;;;15.39;61.60;100699.44;6078396;29;20261;-72
2022/11/09 14:39:23;;;;;;;2.17;1.97;;;;;;;15.27;62.39;100711.63;6077194;29;20555;-72
2022/11/09 14:43:10;;;;;;;1.63;1.53;;;;;;;15.18;62.60;100716.25;6088621;29;20232;-73
2022/11/09 14:46:52;;;;;;;4.57;1.53;;;;;;;15.19;62.53;100717.06;6090336;29;20229;-73
2022/11/09 14:50:37;;;;;;;3.10;1.30;;;;;;;15.19;63.08;100711.63;6082106;29;20241;-72
2022/11/09 14:54:21;;;;;;;2.27;1.47;;;;;;;15.23;62.99;100711.13;6078522;29;20253;-73
2022/11/09 14:58:01;;;;;;;8.87;1.77;;;;;;;15.16;63.40;100714.72;6085895;29;20228;-74
2022/11/09 15:01:40;;;;;;;6.73;1.70;;;;;;;15.08;63.75;100712.00;6092577;29;20228;-73
2022/11/09 15:05:44;;;;;;;1.43;1.33;;;;;;;15.11;63.09;100714.34;6079570;29;20327;-73
2022/11/09 15:09:32;;;;;;;4.17;2.00;;;;;;;15.03;64.00;100725.22;6083024;29;20327;-74
2022/11/09 15:13:11;;;;;;;1.60;1.50;;;;;;;15.08;63.76;100712.81;6094490;29;20240;-73
2022/11/09 15:16:58;;;;;;;1.43;1.17;;;;;;;15.04;63.44;100716.91;6087841;29;20241;-72
2022/11/09 15:20:37;;;;;;;2.63;1.53;;;;;;;15.07;63.58;100713.00;6073666;29;20232;-72
2022/11/09 15:24:19;;;;;;;2.43;1.73;;;;;;;15.05;63.43;100718.59;6082183;29;20236;-72
2022/11/09 15:28:16;;;;;;;3.20;2.07;;;;;;;14.95;63.15;100708.94;6088726;29;20232;-72
2022/11/09 15:32:00;;;;;;;1.43;1.00;;;;;;;14.90;63.15;100716.72;6082649;29;20232;-72
2022/11/09 15:35:48;;;;;;;2.20;1.13;;;;;;;14.89;63.45;100704.19;6074742;29;20232;-72
2022/11/09 15:39:28;;;;;;;2.03;1.83;;;;;;;14.81;64.01;100707.72;6077854;29;20252;-73
2022/11/09 15:43:09;;;;;;;2.90;1.67;;;;;;;14.76;65.07;100717.38;6084519;29;20232;-71
2022/11/09 15:46:50;;;;;;;4.33;1.40;;;;;;;14.82;65.20;100722.13;6087117;29;20278;-70
2022/11/09 15:50:30;;;;;;;3.27;1.83;;;;;;;14.74;64.79;100724.84;6075371;29;20241;-71
2022/11/09 15:54:09;;;;;;;3.70;1.60;;;;;;;14.74;64.57;100730.25;6075466;29;20251;-71
2022/11/09 15:57:49;;;;;;;2.53;1.60;;;;;;;14.67;64.80;100723.78;6084350;29;20236;-71
2022/11/09 16:01:31;;;;;;;2.23;1.83;;;;;;;14.66;65.18;100725.69;6074272;29;20245;-71
2022/11/09 16:05:11;;;;;;;2.40;1.37;;;;;;;14.61;65.26;100729.88;6076245;29;20244;-71
2022/11/09 16:08:52;;;;;;;1.10;1.00;;;;;;;14.63;65.05;100741.41;6072561;29;20236;-70
2022/11/09 16:12:31;;;;;;;1.90;1.67;;;;;;;14.60;64.50;100733.63;6077215;29;20878;-70
2022/11/09 16:16:13;;;;;;;2.33;1.60;;;;;;;14.64;64.42;100740.44;6060527;29;20560;-71